createdAt,value
2017-01-21T00:00:04.951Z,39.01
2017-01-21T00:00:45.638Z,39.01
2017-01-21T00:01:26.347Z,39.1
2017-01-21T00:02:07.044Z,38.91
2017-01-21T00:02:47.695Z,39.01
2017-01-21T00:03:28.378Z,38.91
2017-01-21T00:04:09.063Z,39.1
2017-01-21T00:04:49.694Z,39.01
2017-01-21T00:05:30.335Z,39.1
2017-01-21T00:06:11.061Z,39.01
2017-01-21T00:06:51.697Z,39.01
2017-01-21T00:07:32.349Z,39.1
2017-01-21T00:08:13.048Z,38.91
2017-01-21T00:08:53.676Z,38.91
2017-01-21T00:09:34.375Z,39.01
2017-01-21T00:10:15.100Z,39.01
2017-01-21T00:10:55.784Z,39.01
2017-01-21T00:11:36.430Z,39.01
2017-01-21T00:12:17.135Z,38.91
2017-01-21T00:12:57.768Z,39.01
2017-01-21T00:13:38.408Z,39.1
2017-01-21T00:14:19.094Z,39.01
2017-01-21T00:14:59.849Z,38.91
2017-01-21T00:15:40.490Z,38.91
2017-01-21T00:16:21.127Z,39.1
2017-01-21T00:17:01.791Z,38.91
2017-01-21T00:17:42.421Z,39.2
2017-01-21T00:18:23.115Z,39.01
2017-01-21T00:19:03.751Z,39.01
2017-01-21T00:19:44.387Z,39.01
2017-01-21T00:20:25.077Z,38.91
2017-01-21T00:21:05.789Z,39.01
2017-01-21T00:21:46.432Z,39.1
2017-01-21T00:22:27.067Z,39.01
2017-01-21T00:23:07.798Z,39.1
2017-01-21T00:23:48.503Z,39.01
2017-01-21T00:24:29.139Z,39.1
2017-01-21T00:25:09.783Z,38.72
2017-01-21T00:25:50.515Z,39.29
2017-01-21T00:26:31.152Z,39.2
2017-01-21T00:27:11.811Z,39.01
2017-01-21T00:27:52.506Z,39.29
2017-01-21T00:28:33.148Z,39.2
2017-01-21T00:29:13.848Z,38.72
2017-01-21T00:29:54.577Z,39.01
2017-01-21T00:30:35.296Z,39.2
2017-01-21T00:31:15.933Z,39.1
2017-01-21T00:31:56.601Z,38.72
2017-01-21T00:32:37.247Z,38.81
2017-01-21T00:33:17.889Z,38.91
2017-01-21T00:33:58.533Z,38.81
2017-01-21T00:34:39.231Z,38.81
2017-01-21T00:35:19.867Z,38.91
2017-01-21T00:36:00.567Z,38.62
2017-01-21T00:36:41.234Z,39.29
2017-01-21T00:37:21.867Z,39.29
2017-01-21T00:38:02.570Z,39.2
2017-01-21T00:38:43.293Z,39.29
2017-01-21T00:39:23.945Z,39.2
2017-01-21T00:40:04.588Z,38.91
2017-01-21T00:40:45.255Z,39.2
2017-01-21T00:41:25.928Z,39.29
2017-01-21T00:42:06.573Z,39.29
2017-01-21T00:42:47.237Z,39.29
2017-01-21T00:43:27.872Z,39.29
2017-01-21T00:44:08.510Z,39.29
2017-01-21T00:44:49.159Z,38.72
2017-01-21T00:45:29.846Z,39.29
2017-01-21T00:46:10.481Z,39.29
2017-01-21T00:46:51.132Z,39.2
2017-01-21T00:47:31.802Z,39.39
2017-01-21T00:48:12.422Z,38.72
2017-01-21T00:48:53.139Z,39.2
2017-01-21T00:49:34.491Z,39.1
2017-01-21T00:50:15.138Z,39.29
2017-01-21T00:50:55.829Z,39.29
2017-01-21T00:51:36.452Z,39.29
2017-01-21T00:52:17.158Z,39.2
2017-01-21T00:52:57.795Z,39.18
2017-01-21T00:53:38.416Z,39.29
2017-01-21T00:54:19.115Z,39.2
2017-01-21T00:54:59.820Z,38.91
2017-01-21T00:55:40.463Z,38.81
2017-01-21T00:56:21.116Z,39.2
2017-01-21T00:57:01.765Z,39.39
2017-01-21T00:57:42.431Z,38.91
2017-01-21T00:58:23.066Z,38.91
2017-01-21T00:59:03.705Z,38.91
2017-01-21T00:59:44.326Z,38.81
2017-01-21T01:00:24.967Z,39.2
2017-01-21T01:01:05.705Z,38.62
2017-01-21T01:01:46.402Z,38.81
2017-01-21T01:02:27.039Z,38.81
2017-01-21T01:03:07.703Z,39.29
2017-01-21T01:03:48.337Z,39.29
2017-01-21T01:04:28.965Z,39.28
2017-01-21T01:05:09.680Z,39.29
2017-01-21T01:05:50.362Z,39.2
2017-01-21T01:06:30.991Z,39.28
2017-01-21T01:07:11.697Z,39.28
2017-01-21T01:07:52.318Z,39.2
2017-01-21T01:08:32.960Z,39.28
2017-01-21T01:09:13.692Z,38.72
2017-01-21T01:09:54.360Z,38.62
2017-01-21T01:10:35.055Z,38.72
2017-01-21T01:11:15.630Z,39.2
2017-01-21T01:11:56.261Z,38.72
2017-01-21T01:12:36.892Z,38.81
2017-01-21T01:13:17.525Z,38.81
2017-01-21T01:13:58.176Z,38.7
2017-01-21T01:14:38.806Z,38.6
2017-01-21T01:15:19.452Z,38.62
2017-01-21T01:16:00.106Z,38.89
2017-01-21T01:16:40.730Z,38.72
2017-01-21T01:17:21.358Z,38.81
2017-01-21T01:18:01.991Z,38.79
2017-01-21T01:18:42.621Z,38.72
2017-01-21T01:19:23.334Z,38.91
2017-01-21T01:20:03.970Z,38.81
2017-01-21T01:20:44.614Z,38.7
2017-01-21T01:21:25.296Z,38.91
2017-01-21T01:22:05.922Z,38.91
2017-01-21T01:22:46.546Z,38.81
2017-01-21T01:23:27.253Z,38.89
2017-01-21T01:24:07.955Z,38.91
2017-01-21T01:24:48.697Z,38.81
2017-01-21T01:25:29.355Z,38.91
2017-01-21T01:26:10.010Z,38.91
2017-01-21T01:26:50.710Z,38.81
2017-01-21T01:27:31.341Z,38.91
2017-01-21T01:28:12.046Z,38.91
2017-01-21T01:28:52.719Z,38.89
2017-01-21T01:29:33.344Z,38.81
2017-01-21T01:30:14.027Z,38.81
2017-01-21T01:30:54.667Z,38.91
2017-01-21T01:31:35.289Z,38.79
2017-01-21T01:32:16.014Z,38.91
2017-01-21T01:32:56.710Z,38.81
2017-01-21T01:33:37.399Z,38.7
2017-01-21T01:34:17.967Z,38.7
2017-01-21T01:34:58.712Z,38.81
2017-01-21T01:35:39.424Z,38.7
2017-01-21T01:36:20.059Z,38.79
2017-01-21T01:37:00.690Z,38.81
2017-01-21T01:37:41.358Z,38.62
2017-01-21T01:38:21.970Z,38.62
2017-01-21T01:39:02.684Z,38.62
2017-01-21T01:39:43.427Z,38.72
2017-01-21T01:40:24.056Z,38.62
2017-01-21T01:41:04.734Z,38.79
2017-01-21T01:41:45.421Z,38.91
2017-01-21T01:42:26.082Z,38.91
2017-01-21T01:43:06.756Z,38.91
2017-01-21T01:43:47.492Z,38.79
2017-01-21T01:44:28.202Z,38.79
2017-01-21T01:45:08.844Z,38.79
2017-01-21T01:45:49.468Z,38.79
2017-01-21T01:46:30.162Z,38.89
2017-01-21T01:47:10.792Z,38.79
2017-01-21T01:47:51.465Z,38.79
2017-01-21T01:48:32.181Z,38.79
2017-01-21T01:49:12.808Z,38.79
2017-01-21T01:49:53.489Z,38.79
2017-01-21T01:50:34.182Z,38.79
2017-01-21T01:51:14.839Z,38.79
2017-01-21T01:51:55.446Z,38.79
2017-01-21T01:52:36.135Z,38.79
2017-01-21T01:53:16.848Z,38.89
2017-01-21T01:53:57.404Z,38.89
2017-01-21T01:54:38.052Z,38.79
2017-01-21T01:55:18.681Z,38.7
2017-01-21T01:55:59.312Z,38.98
2017-01-21T01:56:39.991Z,38.89
2017-01-21T01:57:20.616Z,38.79
2017-01-21T01:58:01.304Z,38.89
2017-01-21T01:58:41.933Z,38.89
2017-01-21T01:59:22.679Z,38.89
2017-01-21T02:00:03.251Z,38.7
2017-01-21T02:00:43.918Z,38.79
2017-01-21T02:01:24.638Z,38.89
2017-01-21T02:02:05.180Z,38.89
2017-01-21T02:02:45.881Z,38.79
2017-01-21T02:03:26.525Z,38.79
2017-01-21T02:04:07.163Z,38.79
2017-01-21T02:04:47.879Z,38.79
2017-01-21T02:05:28.513Z,38.79
2017-01-21T02:06:09.137Z,38.79
2017-01-21T02:06:49.771Z,38.89
2017-01-21T02:07:30.489Z,38.79
2017-01-21T02:08:11.153Z,38.6
2017-01-21T02:08:51.782Z,38.89
2017-01-21T02:09:32.465Z,38.79
2017-01-21T02:10:13.088Z,38.7
2017-01-21T02:10:53.816Z,38.89
2017-01-21T02:11:34.447Z,38.89
2017-01-21T02:12:15.074Z,38.7
2017-01-21T02:12:55.737Z,38.79
2017-01-21T02:13:36.394Z,38.98
2017-01-21T02:14:17.021Z,38.72
2017-01-21T02:14:57.695Z,38.6
2017-01-21T02:15:38.321Z,38.6
2017-01-21T02:16:18.942Z,38.6
2017-01-21T02:16:59.660Z,38.6
2017-01-21T02:17:40.385Z,38.6
2017-01-21T02:18:21.018Z,38.51
2017-01-21T02:19:01.649Z,38.51
2017-01-21T02:19:42.299Z,38.6
2017-01-21T02:20:22.926Z,38.7
2017-01-21T02:21:03.553Z,38.79
2017-01-21T02:21:44.233Z,38.79
2017-01-21T02:22:24.861Z,38.91
2017-01-21T02:23:05.609Z,38.6
2017-01-21T02:23:46.309Z,38.6
2017-01-21T02:24:26.952Z,38.51
2017-01-21T02:25:07.578Z,38.51
2017-01-21T02:25:48.262Z,38.79
2017-01-21T02:26:28.884Z,38.79
2017-01-21T02:27:09.517Z,38.7
2017-01-21T02:27:50.188Z,38.7
2017-01-21T02:28:30.899Z,38.7
2017-01-21T02:29:11.551Z,38.6
2017-01-21T02:29:52.278Z,38.79
2017-01-21T02:30:32.958Z,38.89
2017-01-21T02:31:13.600Z,38.79
2017-01-21T02:31:54.310Z,38.7
2017-01-21T02:32:35.024Z,38.89
2017-01-21T02:33:15.674Z,38.89
2017-01-21T02:33:56.277Z,38.7
2017-01-21T02:34:36.998Z,38.89
2017-01-21T02:35:17.680Z,38.7
2017-01-21T02:35:58.328Z,38.7
2017-01-21T02:36:39.005Z,38.89
2017-01-21T02:37:19.632Z,38.89
2017-01-21T02:38:00.256Z,38.89
2017-01-21T02:38:40.983Z,38.79
2017-01-21T02:39:21.729Z,38.89
2017-01-21T02:40:02.359Z,38.89
2017-01-21T02:40:43.095Z,38.7
2017-01-21T02:41:23.718Z,38.89
2017-01-21T02:42:04.349Z,38.98
2017-01-21T02:42:45.009Z,38.6
2017-01-21T02:43:25.734Z,38.6
2017-01-21T02:44:06.389Z,38.41
2017-01-21T02:44:47.035Z,38.6
2017-01-21T02:45:27.705Z,38.7
2017-01-21T02:46:08.333Z,38.7
2017-01-21T02:46:48.969Z,38.7
2017-01-21T02:47:29.627Z,38.98
2017-01-21T02:48:10.256Z,38.7
2017-01-21T02:48:50.874Z,38.7
2017-01-21T02:49:31.498Z,38.79
2017-01-21T02:50:12.120Z,38.6
2017-01-21T02:50:52.746Z,38.89
2017-01-21T02:51:33.425Z,38.7
2017-01-21T02:52:14.046Z,38.79
2017-01-21T02:52:54.673Z,38.7
2017-01-21T02:53:35.336Z,38.6
2017-01-21T02:54:15.968Z,38.6
2017-01-21T02:54:56.681Z,38.6
2017-01-21T02:55:37.375Z,38.6
2017-01-21T02:56:18.062Z,38.51
2017-01-21T02:56:58.706Z,38.51
2017-01-21T02:57:39.426Z,38.79
2017-01-21T02:58:20.101Z,38.7
2017-01-21T02:59:00.730Z,38.7
2017-01-21T02:59:41.398Z,38.89
2017-01-21T03:00:22.136Z,38.89
2017-01-21T03:01:02.824Z,38.7
2017-01-21T03:01:43.449Z,38.7
2017-01-21T03:02:24.132Z,38.7
2017-01-21T03:03:04.751Z,38.6
2017-01-21T03:03:45.373Z,38.7
2017-01-21T03:04:26.030Z,38.7
2017-01-21T03:05:06.656Z,38.79
2017-01-21T03:05:47.354Z,38.79
2017-01-21T03:06:28.092Z,38.7
2017-01-21T03:07:08.739Z,38.7
2017-01-21T03:07:49.388Z,38.89
2017-01-21T03:08:30.036Z,38.98
2017-01-21T03:09:10.666Z,38.79
2017-01-21T03:09:51.299Z,38.79
2017-01-21T03:10:32.006Z,38.98
2017-01-21T03:11:12.618Z,38.89
2017-01-21T03:11:53.239Z,38.89
2017-01-21T03:12:33.896Z,38.89
2017-01-21T03:13:14.578Z,38.79
2017-01-21T03:13:55.266Z,38.98
2017-01-21T03:14:35.896Z,38.98
2017-01-21T03:15:16.605Z,38.79
2017-01-21T03:15:57.246Z,38.79
2017-01-21T03:16:37.948Z,38.79
2017-01-21T03:17:18.688Z,38.6
2017-01-21T03:17:59.439Z,39.37
2017-01-21T03:18:40.058Z,38.79
2017-01-21T03:19:20.735Z,38.79
2017-01-21T03:20:01.445Z,39.37
2017-01-21T03:20:42.100Z,39.08
2017-01-21T03:21:22.812Z,39.18
2017-01-21T03:22:03.509Z,39.18
2017-01-21T03:22:44.138Z,39.08
2017-01-21T03:23:24.817Z,39.08
2017-01-21T03:24:05.464Z,38.98
2017-01-21T03:24:46.102Z,39.18
2017-01-21T03:25:26.811Z,39.18
2017-01-21T03:26:07.524Z,39.08
2017-01-21T03:26:48.229Z,38.98
2017-01-21T03:27:28.878Z,39.08
2017-01-21T03:28:09.547Z,39.18
2017-01-21T03:28:50.164Z,39.18
2017-01-21T03:29:30.805Z,39.08
2017-01-21T03:30:11.469Z,39.08
2017-01-21T03:30:52.179Z,38.98
2017-01-21T03:31:32.808Z,38.98
2017-01-21T03:32:13.439Z,39.08
2017-01-21T03:32:54.094Z,38.89
2017-01-21T03:33:34.724Z,38.98
2017-01-21T03:34:15.374Z,38.98
2017-01-21T03:34:56.044Z,38.89
2017-01-21T03:35:36.672Z,38.98
2017-01-21T03:36:18.330Z,39.28
2017-01-21T03:36:58.974Z,39.28
2017-01-21T03:37:39.614Z,39.47
2017-01-21T03:38:20.330Z,39.18
2017-01-21T03:39:00.958Z,39.47
2017-01-21T03:39:41.584Z,39.37
2017-01-21T03:40:22.269Z,39.18
2017-01-21T03:41:02.886Z,39.18
2017-01-21T03:41:43.511Z,39.18
2017-01-21T03:42:24.188Z,39.47
2017-01-21T03:43:04.944Z,39.37
2017-01-21T03:43:45.566Z,39.47
2017-01-21T03:44:26.301Z,39.47
2017-01-21T03:45:06.923Z,39.47
2017-01-21T03:45:47.554Z,39.56
2017-01-21T03:46:28.191Z,39.56
2017-01-21T03:47:08.915Z,39.75
2017-01-21T03:47:49.613Z,39.47
2017-01-21T03:48:30.252Z,39.37
2017-01-21T03:49:10.900Z,39.75
2017-01-21T03:49:51.579Z,39.56
2017-01-21T03:50:32.205Z,39.65
2017-01-21T03:51:12.964Z,39.56
2017-01-21T03:51:53.595Z,39.37
2017-01-21T03:52:34.226Z,39.47
2017-01-21T03:53:14.895Z,39.47
2017-01-21T03:53:55.616Z,39.56
2017-01-21T03:54:36.250Z,39.94
2017-01-21T03:55:16.881Z,39.56
2017-01-21T03:55:57.523Z,39.94
2017-01-21T03:56:38.144Z,39.65
2017-01-21T03:57:18.864Z,39.65
2017-01-21T03:57:59.547Z,39.75
2017-01-21T03:58:40.186Z,39.85
2017-01-21T03:59:20.858Z,39.37
2017-01-21T04:00:01.561Z,39.65
2017-01-21T04:00:42.221Z,39.75
2017-01-21T04:01:22.922Z,39.65
2017-01-21T04:02:03.590Z,39.85
2017-01-21T04:02:44.210Z,39.85
2017-01-21T04:03:24.837Z,39.85
2017-01-21T04:04:05.518Z,39.85
2017-01-21T04:04:46.224Z,39.85
2017-01-21T04:05:26.846Z,39.85
2017-01-21T04:06:07.476Z,39.85
2017-01-21T04:06:48.134Z,39.94
2017-01-21T04:07:28.754Z,39.65
2017-01-21T04:08:09.395Z,39.75
2017-01-21T04:08:50.075Z,39.94
2017-01-21T04:09:30.706Z,39.65
2017-01-21T04:10:11.420Z,39.85
2017-01-21T04:10:52.085Z,39.85
2017-01-21T04:11:32.723Z,39.75
2017-01-21T04:12:13.421Z,39.85
2017-01-21T04:12:54.062Z,39.94
2017-01-21T04:13:34.694Z,39.47
2017-01-21T04:14:15.377Z,39.75
2017-01-21T04:14:56.013Z,39.65
2017-01-21T04:15:36.636Z,39.65
2017-01-21T04:16:17.275Z,39.65
2017-01-21T04:16:58.579Z,39.75
2017-01-21T04:17:39.332Z,39.94
2017-01-21T04:18:20.013Z,39.65
2017-01-21T04:19:00.723Z,39.75
2017-01-21T04:19:41.261Z,39.56
2017-01-21T04:20:21.941Z,39.65
2017-01-21T04:21:02.632Z,39.65
2017-01-21T04:21:43.199Z,39.85
2017-01-21T04:22:23.870Z,39.65
2017-01-21T04:23:04.499Z,39.65
2017-01-21T04:23:45.138Z,39.56
2017-01-21T04:24:25.847Z,39.85
2017-01-21T04:25:06.505Z,39.85
2017-01-21T04:25:47.101Z,39.85
2017-01-21T04:26:27.822Z,39.47
2017-01-21T04:27:08.479Z,39.85
2017-01-21T04:27:49.149Z,39.85
2017-01-21T04:28:29.852Z,39.85
2017-01-21T04:29:10.483Z,39.65
2017-01-21T04:29:51.121Z,39.75
2017-01-21T04:30:31.814Z,40.04
2017-01-21T04:31:12.581Z,39.94
2017-01-21T04:31:53.221Z,39.65
2017-01-21T04:32:33.850Z,39.65
2017-01-21T04:33:14.526Z,39.65
2017-01-21T04:33:55.144Z,39.56
2017-01-21T04:34:35.772Z,39.94
2017-01-21T04:35:16.441Z,40.14
2017-01-21T04:35:57.074Z,40.14
2017-01-21T04:36:37.798Z,40.14
2017-01-21T04:37:18.510Z,39.65
2017-01-21T04:37:59.181Z,39.65
2017-01-21T04:38:39.814Z,39.65
2017-01-21T04:39:20.465Z,39.56
2017-01-21T04:40:01.171Z,39.75
2017-01-21T04:40:41.817Z,40.14
2017-01-21T04:41:22.521Z,40.14
2017-01-21T04:42:03.227Z,40.23
2017-01-21T04:42:43.859Z,40.04
2017-01-21T04:43:24.485Z,39.94
2017-01-21T04:44:05.202Z,39.85
2017-01-21T04:44:45.835Z,39.85
2017-01-21T04:45:26.530Z,39.94
2017-01-21T04:46:07.272Z,40.14
2017-01-21T04:46:47.925Z,39.75
2017-01-21T04:47:28.548Z,39.85
2017-01-21T04:48:09.257Z,39.94
2017-01-21T04:48:49.960Z,40.14
2017-01-21T04:49:30.585Z,39.65
2017-01-21T04:50:11.253Z,39.85
2017-01-21T04:50:51.971Z,39.85
2017-01-21T04:51:32.602Z,39.94
2017-01-21T04:52:13.244Z,40.04
2017-01-21T04:52:53.961Z,39.85
2017-01-21T04:53:34.589Z,39.94
2017-01-21T04:54:15.288Z,40.04
2017-01-21T04:54:55.912Z,39.94
2017-01-21T04:55:36.549Z,39.85
2017-01-21T04:56:17.242Z,40.04
2017-01-21T04:56:57.950Z,39.85
2017-01-21T04:57:38.615Z,39.85
2017-01-21T04:58:19.308Z,39.85
2017-01-21T04:58:59.967Z,39.75
2017-01-21T04:59:40.600Z,40.04
2017-01-21T05:00:21.230Z,39.94
2017-01-21T05:01:01.897Z,40.04
2017-01-21T05:01:42.532Z,39.94
2017-01-21T05:02:23.169Z,39.94
2017-01-21T05:03:03.813Z,39.94
2017-01-21T05:03:44.530Z,39.94
2017-01-21T05:04:25.162Z,40.04
2017-01-21T05:05:05.791Z,39.94
2017-01-21T05:05:46.472Z,40.33
2017-01-21T05:06:27.100Z,40.14
2017-01-21T05:07:07.812Z,40.14
2017-01-21T05:07:48.501Z,40.33
2017-01-21T05:08:29.131Z,40.33
2017-01-21T05:09:09.755Z,40.33
2017-01-21T05:09:50.387Z,40.23
2017-01-21T05:10:31.020Z,40.23
2017-01-21T05:11:11.664Z,40.33
2017-01-21T05:11:52.313Z,40.23
2017-01-21T05:12:32.932Z,40.33
2017-01-21T05:13:13.599Z,40.23
2017-01-21T05:13:54.326Z,40.23
2017-01-21T05:14:34.962Z,40.23
2017-01-21T05:15:15.588Z,40.14
2017-01-21T05:15:56.304Z,40.42
2017-01-21T05:16:36.949Z,40.33
2017-01-21T05:17:17.594Z,40.52
2017-01-21T05:17:58.224Z,40.33
2017-01-21T05:18:38.855Z,40.23
2017-01-21T05:19:19.494Z,40.33
2017-01-21T05:20:00.162Z,40.42
2017-01-21T05:20:40.799Z,40.52
2017-01-21T05:21:21.469Z,40.23
2017-01-21T05:22:02.141Z,40.14
2017-01-21T05:22:42.757Z,40.42
2017-01-21T05:23:23.449Z,40.61
2017-01-21T05:24:04.147Z,40.42
2017-01-21T05:24:44.776Z,40.71
2017-01-21T05:25:25.437Z,40.52
2017-01-21T05:26:06.133Z,40.81
2017-01-21T05:26:46.833Z,40.33
2017-01-21T05:27:27.474Z,40.23
2017-01-21T05:28:08.179Z,40.61
2017-01-21T05:28:48.889Z,40.42
2017-01-21T05:29:29.520Z,40.61
2017-01-21T05:30:10.225Z,40.52
2017-01-21T05:30:50.859Z,40.42
2017-01-21T05:31:31.483Z,40.04
2017-01-21T05:32:12.149Z,40.42
2017-01-21T05:32:52.846Z,40.42
2017-01-21T05:33:33.473Z,40.42
2017-01-21T05:34:14.108Z,40.71
2017-01-21T05:34:54.734Z,40.71
2017-01-21T05:35:35.380Z,40.71
2017-01-21T05:36:16.053Z,40.61
2017-01-21T05:36:56.713Z,40.61
2017-01-21T05:37:37.343Z,40.81
2017-01-21T05:38:17.975Z,40.81
2017-01-21T05:38:58.664Z,40.59
2017-01-21T05:39:39.288Z,40.52
2017-01-21T05:40:20.006Z,40.42
2017-01-21T05:41:00.640Z,40.71
2017-01-21T05:41:41.264Z,40.42
2017-01-21T05:42:21.944Z,40.61
2017-01-21T05:43:02.657Z,40.71
2017-01-21T05:43:43.363Z,40.61
2017-01-21T05:44:24.017Z,40.81
2017-01-21T05:45:04.701Z,40.71
2017-01-21T05:45:45.415Z,40.71
2017-01-21T05:46:26.036Z,40.61
2017-01-21T05:47:06.689Z,40.81
2017-01-21T05:47:47.413Z,40.61
2017-01-21T05:48:28.048Z,40.71
2017-01-21T05:49:08.697Z,40.71
2017-01-21T05:49:49.336Z,40.71
2017-01-21T05:50:29.963Z,40.71
2017-01-21T05:51:10.674Z,40.71
2017-01-21T05:51:51.414Z,41.09
2017-01-21T05:52:32.072Z,40.98
2017-01-21T05:53:12.701Z,41
2017-01-21T05:53:53.340Z,41
2017-01-21T05:54:34.000Z,40.71
2017-01-21T05:55:14.636Z,41
2017-01-21T05:55:55.288Z,41
2017-01-21T05:56:35.925Z,40.71
2017-01-21T05:57:16.553Z,40.71
2017-01-21T05:57:57.252Z,40.81
2017-01-21T05:58:37.975Z,40.71
2017-01-21T05:59:18.605Z,40.81
2017-01-21T05:59:59.303Z,41.09
2017-01-21T06:00:39.991Z,41.09
2017-01-21T06:01:20.623Z,40.81
2017-01-21T06:02:01.328Z,40.9
2017-01-21T06:02:41.962Z,40.81
2017-01-21T06:03:22.597Z,40.88
2017-01-21T06:04:03.287Z,40.81
2017-01-21T06:04:44.023Z,40.78
2017-01-21T06:05:24.681Z,40.9
2017-01-21T06:06:05.300Z,40.9
2017-01-21T06:06:46.026Z,40.69
2017-01-21T06:07:26.657Z,40.78
2017-01-21T06:08:07.279Z,40.81
2017-01-21T06:08:47.975Z,40.78
2017-01-21T06:09:28.670Z,40.9
2017-01-21T06:10:09.294Z,40.81
2017-01-21T06:10:49.924Z,40.71
2017-01-21T06:11:30.590Z,41.19
2017-01-21T06:12:11.220Z,40.9
2017-01-21T06:12:52.358Z,40.81
2017-01-21T06:13:33.082Z,40.69
2017-01-21T06:14:13.740Z,40.69
2017-01-21T06:14:54.423Z,41
2017-01-21T06:15:35.116Z,40.81
2017-01-21T06:16:15.751Z,40.71
2017-01-21T06:16:56.443Z,40.88
2017-01-21T06:17:37.075Z,40.9
2017-01-21T06:18:17.788Z,40.81
2017-01-21T06:18:58.503Z,40.98
2017-01-21T06:19:39.128Z,40.9
2017-01-21T06:20:19.812Z,40.81
2017-01-21T06:21:00.500Z,40.9
2017-01-21T06:21:41.128Z,40.9
2017-01-21T06:22:21.761Z,41.09
2017-01-21T06:23:02.380Z,41
2017-01-21T06:23:43.017Z,41
2017-01-21T06:24:23.683Z,40.81
2017-01-21T06:25:04.351Z,40.69
2017-01-21T06:25:44.988Z,40.81
2017-01-21T06:26:25.613Z,40.81
2017-01-21T06:27:06.290Z,40.78
2017-01-21T06:27:46.924Z,40.81
2017-01-21T06:28:27.542Z,40.69
2017-01-21T06:29:08.208Z,40.98
2017-01-21T06:29:48.853Z,40.81
2017-01-21T06:30:29.549Z,40.9
2017-01-21T06:31:10.258Z,40.81
2017-01-21T06:31:50.926Z,40.71
2017-01-21T06:32:31.572Z,40.78
2017-01-21T06:33:12.240Z,40.9
2017-01-21T06:33:52.872Z,40.78
2017-01-21T06:34:33.500Z,40.78
2017-01-21T06:35:14.161Z,40.9
2017-01-21T06:35:54.874Z,41
2017-01-21T06:36:35.511Z,40.98
2017-01-21T06:37:16.209Z,40.98
2017-01-21T06:37:56.990Z,41
2017-01-21T06:38:37.638Z,40.81
2017-01-21T06:39:18.307Z,40.88
2017-01-21T06:39:59.002Z,41
2017-01-21T06:40:39.712Z,40.88
2017-01-21T06:41:20.250Z,40.88
2017-01-21T06:42:00.991Z,41
2017-01-21T06:42:41.624Z,40.78
2017-01-21T06:43:22.248Z,40.9
2017-01-21T06:44:02.913Z,40.9
2017-01-21T06:44:43.541Z,40.71
2017-01-21T06:45:24.168Z,40.69
2017-01-21T06:46:05.833Z,40.69
2017-01-21T06:46:46.519Z,40.9
2017-01-21T06:47:27.101Z,40.98
2017-01-21T06:48:07.800Z,40.78
2017-01-21T06:48:48.498Z,40.81
2017-01-21T06:49:29.147Z,41
2017-01-21T06:50:09.775Z,40.71
2017-01-21T06:50:50.473Z,41
2017-01-21T06:51:31.092Z,40.9
2017-01-21T06:52:11.800Z,40.78
2017-01-21T06:52:52.476Z,40.88
2017-01-21T06:53:33.102Z,40.78
2017-01-21T06:54:13.751Z,41
2017-01-21T06:54:54.405Z,41
2017-01-21T06:55:35.030Z,40.9
2017-01-21T06:56:15.703Z,41
2017-01-21T06:56:56.357Z,40.81
2017-01-21T06:57:36.985Z,40.71
2017-01-21T06:58:17.621Z,40.9
2017-01-21T06:58:58.360Z,41
2017-01-21T06:59:38.987Z,40.71
2017-01-21T07:00:19.631Z,40.98
2017-01-21T07:01:00.312Z,40.88
2017-01-21T07:01:40.944Z,40.71
2017-01-21T07:02:21.676Z,40.78
2017-01-21T07:03:02.309Z,40.9
2017-01-21T07:03:42.941Z,40.88
2017-01-21T07:04:23.574Z,40.9
2017-01-21T07:05:04.288Z,41
2017-01-21T07:05:44.966Z,40.88
2017-01-21T07:06:25.615Z,40.81
2017-01-21T07:07:06.269Z,40.78
2017-01-21T07:07:46.953Z,40.98
2017-01-21T07:08:27.590Z,40.88
2017-01-21T07:09:08.284Z,40.81
2017-01-21T07:09:48.914Z,40.78
2017-01-21T07:10:29.547Z,40.78
2017-01-21T07:11:10.175Z,40.98
2017-01-21T07:11:50.895Z,40.9
2017-01-21T07:12:31.521Z,40.78
2017-01-21T07:13:12.246Z,40.9
2017-01-21T07:13:52.961Z,40.88
2017-01-21T07:14:33.583Z,40.78
2017-01-21T07:15:14.284Z,40.81
2017-01-21T07:15:55.007Z,40.88
2017-01-21T07:16:35.701Z,40.9
2017-01-21T07:17:16.333Z,40.9
2017-01-21T07:17:57.023Z,40.9
2017-01-21T07:18:37.699Z,41
2017-01-21T07:19:18.330Z,40.61
2017-01-21T07:19:58.987Z,40.78
2017-01-21T07:20:39.617Z,40.71
2017-01-21T07:21:20.244Z,40.98
2017-01-21T07:22:00.903Z,40.78
2017-01-21T07:22:41.558Z,40.81
2017-01-21T07:23:22.183Z,40.78
2017-01-21T07:24:02.806Z,40.71
2017-01-21T07:24:43.436Z,40.88
2017-01-21T07:25:24.060Z,40.88
2017-01-21T07:26:04.773Z,40.9
2017-01-21T07:26:45.404Z,40.81
2017-01-21T07:27:26.030Z,40.88
2017-01-21T07:28:06.761Z,40.9
2017-01-21T07:28:47.385Z,41
2017-01-21T07:29:28.021Z,40.69
2017-01-21T07:30:08.647Z,40.59
2017-01-21T07:30:49.291Z,40.59
2017-01-21T07:31:29.915Z,41.17
2017-01-21T07:33:28.721Z,40.71
2017-01-21T07:34:09.373Z,40.78
2017-01-21T07:34:50.000Z,40.78
2017-01-21T07:35:30.652Z,41
2017-01-21T07:36:11.328Z,40.61
2017-01-21T07:36:51.948Z,40.78
2017-01-21T07:37:32.583Z,40.81
2017-01-21T07:38:13.253Z,40.59
2017-01-21T07:38:53.897Z,40.78
2017-01-21T07:39:34.600Z,40.88
2017-01-21T07:40:15.308Z,40.78
2017-01-21T07:40:55.984Z,40.9
2017-01-21T07:41:36.604Z,40.88
2017-01-21T07:42:17.275Z,40.81
2017-01-21T07:42:57.906Z,40.69
2017-01-21T07:43:38.544Z,41
2017-01-21T07:44:19.195Z,40.69
2017-01-21T07:44:59.891Z,40.9
2017-01-21T07:45:40.532Z,40.78
2017-01-21T07:46:21.192Z,40.71
2017-01-21T07:47:01.902Z,41.09
2017-01-21T07:47:42.538Z,41
2017-01-21T07:48:23.156Z,40.81
2017-01-21T07:49:03.829Z,40.71
2017-01-21T07:49:44.454Z,41.09
2017-01-21T07:50:25.073Z,40.98
2017-01-21T07:51:05.754Z,40.61
2017-01-21T07:51:46.381Z,40.78
2017-01-21T07:52:27.048Z,40.71
2017-01-21T07:53:07.678Z,40.52
2017-01-21T07:53:48.311Z,40.71
2017-01-21T07:54:29.007Z,40.69
2017-01-21T07:55:09.635Z,40.81
2017-01-21T07:55:50.270Z,40.71
2017-01-21T07:56:30.979Z,40.71
2017-01-21T07:57:11.690Z,40.52
2017-01-21T07:57:52.316Z,40.52
2017-01-21T07:58:32.945Z,40.52
2017-01-21T07:59:13.672Z,40.81
2017-01-21T07:59:54.300Z,40.69
2017-01-21T08:00:34.932Z,40.69
2017-01-21T08:01:15.642Z,40.81
2017-01-21T08:01:56.270Z,40.52
2017-01-21T08:02:36.960Z,40.02
2017-01-21T08:03:17.667Z,40.81
2017-01-21T08:03:58.378Z,40.33
2017-01-21T08:04:39.023Z,40.61
2017-01-21T08:05:20.255Z,40.41
2017-01-21T08:06:00.884Z,40.42
2017-01-21T08:06:41.512Z,40.61
2017-01-21T08:07:22.154Z,40.5
2017-01-21T08:08:02.781Z,40.59
2017-01-21T08:08:43.536Z,40.59
2017-01-21T08:09:24.208Z,40.52
2017-01-21T08:10:04.831Z,40.69
2017-01-21T08:10:45.539Z,40.78
2017-01-21T08:11:26.166Z,40.71
2017-01-21T08:12:06.794Z,40.9
2017-01-21T08:12:47.535Z,40.31
2017-01-21T08:13:28.235Z,40.59
2017-01-21T08:14:08.877Z,40.42
2017-01-21T08:14:49.509Z,40.78
2017-01-21T08:15:30.194Z,40.52
2017-01-21T08:16:10.842Z,40.71
2017-01-21T08:16:51.541Z,40.5
2017-01-21T08:17:32.255Z,40.5
2017-01-21T08:18:12.917Z,40.41
2017-01-21T08:18:53.547Z,40.42
2017-01-21T08:19:34.206Z,40.52
2017-01-21T08:20:14.930Z,40.61
2017-01-21T08:20:55.588Z,40.52
2017-01-21T08:21:36.300Z,40.61
2017-01-21T08:22:17.023Z,40.42
2017-01-21T08:22:57.648Z,40.81
2017-01-21T08:23:38.280Z,40.14
2017-01-21T08:24:18.950Z,40.21
2017-01-21T08:24:59.586Z,40.21
2017-01-21T08:25:40.301Z,40.14
2017-01-21T08:26:20.929Z,40.81
2017-01-21T08:27:01.555Z,40.5
2017-01-21T08:27:42.222Z,40.81
2017-01-21T08:28:22.920Z,40.61
2017-01-21T08:29:03.550Z,40.33
2017-01-21T08:29:44.216Z,40.42
2017-01-21T08:30:24.843Z,40.69
2017-01-21T08:31:05.474Z,40.5
2017-01-21T08:31:46.095Z,40.52
2017-01-21T08:32:26.804Z,40.59
2017-01-21T08:33:07.488Z,40.42
2017-01-21T08:33:48.060Z,40.33
2017-01-21T08:34:28.716Z,40.5
2017-01-21T08:35:09.402Z,40.31
2017-01-21T08:35:49.974Z,40.52
2017-01-21T08:36:30.640Z,40.52
2017-01-21T08:37:11.274Z,40.52
2017-01-21T08:37:51.902Z,40.42
2017-01-21T08:38:32.559Z,40.61
2017-01-21T08:39:13.194Z,40.42
2017-01-21T08:39:53.815Z,40.42
2017-01-21T08:40:34.465Z,40.14
2017-01-21T08:41:15.105Z,40.42
2017-01-21T08:41:55.735Z,40.33
2017-01-21T08:42:36.393Z,40.42
2017-01-21T08:43:17.021Z,40.52
2017-01-21T08:43:57.713Z,40.69
2017-01-21T08:44:38.347Z,40.31
2017-01-21T08:45:19.000Z,40.81
2017-01-21T08:45:59.676Z,40.14
2017-01-21T08:46:40.386Z,40.23
2017-01-21T08:47:21.013Z,40.42
2017-01-21T08:48:01.647Z,40.33
2017-01-21T08:48:42.352Z,40.69